Time;durP1;ratioP1;P1;durP2;ratioP2;P2;SDS_P1;SDS_P2;PMS_P1;PMS_P2;Temp;Humidity;BMP_temperature;BMP_pressure;BME280_temperature;BME280_humidity;BME280_pressure;Samples;Min_cycle;Max_cycle;Signal;HPM_P1;HPM_P2
2022/07/19 00:00:52;;;;;;;5.80;4.90;;;;;;;;;;5039479;28;20436;-64
2022/07/19 00:03:20;;;;;;;8.63;4.60;;;;;;;;;;5044016;28;20395;-64
2022/07/19 00:05:46;;;;;;;9.60;4.70;;;;;;;;;;5041879;28;20045;-64
2022/07/19 00:08:12;;;;;;;7.07;5.07;;;;;;;;;;5020655;28;20056;-64
2022/07/19 00:10:38;;;;;;;5.20;4.25;;;;;;;;;;5018745;28;20052;-64
2022/07/19 00:13:04;;;;;;;5.97;4.40;;;;;;;;;;5019736;28;21819;-64
2022/07/19 00:15:30;;;;;;;8.30;4.60;;;;;;;;;;5025164;28;20143;-65
2022/07/19 00:17:56;;;;;;;7.53;4.88;;;;;;;;;;5035502;28;20041;-64
2022/07/19 00:20:23;;;;;;;8.35;4.50;;;;;;;;;;5041823;28;20139;-65
2022/07/19 00:22:49;;;;;;;9.40;4.80;;;;;;;;;;5045051;28;20032;-65
2022/07/19 00:25:16;;;;;;;6.38;4.50;;;;;;;;;;5045020;28;20029;-65
2022/07/19 00:27:42;;;;;;;8.52;4.78;;;;;;;;;;5051824;28;20498;-65
2022/07/19 00:30:09;;;;;;;6.07;4.03;;;;;;;;;;5043713;28;20084;-65
2022/07/19 00:32:35;;;;;;;6.10;4.22;;;;;;;;;;5044519;28;20048;-65
2022/07/19 00:35:01;;;;;;;4.95;4.28;;;;;;;;;;5046790;28;20171;-65
2022/07/19 00:37:27;;;;;;;5.50;4.30;;;;;;;;;;5043856;28;20037;-65
2022/07/19 00:39:53;;;;;;;8.73;5.05;;;;;;;;;;5044397;28;20159;-65
2022/07/19 00:42:19;;;;;;;6.93;4.90;;;;;;;;;;5051925;28;20581;-65
2022/07/19 00:44:45;;;;;;;8.85;5.07;;;;;;;;;;5041706;28;20093;-65
2022/07/19 00:47:11;;;;;;;6.95;4.55;;;;;;;;;;5052102;28;20529;-65
2022/07/19 00:49:37;;;;;;;8.32;5.50;;;;;;;;;;5040187;28;20037;-65
2022/07/19 00:52:04;;;;;;;7.50;5.22;;;;;;;;;;5046406;28;20043;-65
2022/07/19 00:54:31;;;;;;;7.28;4.88;;;;;;;;;;5042471;28;20423;-65
2022/07/19 00:56:58;;;;;;;9.90;5.15;;;;;;;;;;5042970;28;20033;-65
2022/07/19 00:59:25;;;;;;;8.07;5.10;;;;;;;;;;5038388;28;20055;-65
2022/07/19 01:01:51;;;;;;;7.70;4.80;;;;;;;;;;5044302;28;20482;-65
2022/07/19 01:04:19;;;;;;;6.72;4.72;;;;;;;;;;5049979;28;20399;-65
2022/07/19 01:06:45;;;;;;;8.38;5.30;;;;;;;;;;5041637;28;20095;-65
2022/07/19 01:09:11;;;;;;;9.27;5.50;;;;;;;;;;5042389;28;20040;-64
2022/07/19 01:11:37;;;;;;;7.05;4.78;;;;;;;;;;5042865;28;20111;-65
2022/07/19 01:14:03;;;;;;;7.38;5.70;;;;;;;;;;5046423;28;20064;-65
2022/07/19 01:16:29;;;;;;;10.38;6.20;;;;;;;;;;5044494;28;20091;-65
2022/07/19 01:18:55;;;;;;;8.70;5.07;;;;;;;;;;5038372;28;20034;-65
2022/07/19 01:21:22;;;;;;;8.55;5.40;;;;;;;;;;5043372;28;20128;-65
2022/07/19 01:23:48;;;;;;;8.02;6.35;;;;;;;;;;5044532;28;20094;-65
2022/07/19 01:26:15;;;;;;;8.43;5.70;;;;;;;;;;5043769;28;20055;-65
2022/07/19 01:28:41;;;;;;;7.63;6.00;;;;;;;;;;5041061;28;20446;-65
2022/07/19 01:31:07;;;;;;;11.15;6.05;;;;;;;;;;5045800;28;20064;-65
2022/07/19 01:33:38;;;;;;;8.95;5.82;;;;;;;;;;5049227;28;20040;-65
2022/07/19 01:36:03;;;;;;;;;;;;;;;;;;5047699;28;20037;-65
2022/07/19 01:38:29;;;;;;;7.00;4.55;;;;;;;;;;5044967;28;19936;-65
2022/07/19 01:40:58;;;;;;;7.15;5.55;;;;;;;;;;5042137;28;20043;-65
2022/07/19 01:43:24;;;;;;;6.97;4.95;;;;;;;;;;5047217;28;20558;-65
2022/07/19 01:45:50;;;;;;;9.23;5.00;;;;;;;;;;5048333;28;20521;-65
2022/07/19 01:48:16;;;;;;;9.23;5.57;;;;;;;;;;5045115;28;21724;-65
2022/07/19 01:50:42;;;;;;;7.45;5.50;;;;;;;;;;5040653;28;20037;-65
2022/07/19 01:53:08;;;;;;;7.53;5.20;;;;;;;;;;5045036;28;20045;-63
2022/07/19 01:55:34;;;;;;;8.18;5.47;;;;;;;;;;5046097;28;20112;-63
2022/07/19 01:58:00;;;;;;;8.15;5.20;;;;;;;;;;5045088;28;20072;-63
2022/07/19 02:00:26;;;;;;;8.10;5.60;;;;;;;;;;5039651;28;20037;-63
2022/07/19 02:02:52;;;;;;;10.80;6.07;;;;;;;;;;5049935;28;20044;-63
2022/07/19 02:05:18;;;;;;;9.25;6.00;;;;;;;;;;5050200;28;20056;-63
2022/07/19 02:07:44;;;;;;;10.57;6.22;;;;;;;;;;5049067;28;20296;-63
2022/07/19 02:10:10;;;;;;;7.75;5.72;;;;;;;;;;5045113;28;20103;-63
2022/07/19 02:12:37;;;;;;;8.15;5.53;;;;;;;;;;5048402;28;20043;-63
2022/07/19 02:15:03;;;;;;;9.25;5.70;;;;;;;;;;5050490;28;20040;-63
2022/07/19 02:17:29;;;;;;;9.85;6.25;;;;;;;;;;5049460;28;20143;-63
2022/07/19 02:19:55;;;;;;;7.95;5.43;;;;;;;;;;5049323;28;20054;-63
2022/07/19 02:22:21;;;;;;;11.15;5.43;;;;;;;;;;5048844;28;20080;-63
2022/07/19 02:24:47;;;;;;;6.85;5.43;;;;;;;;;;5049665;28;20397;-63
2022/07/19 02:27:13;;;;;;;9.40;5.95;;;;;;;;;;5047627;28;20124;-63
2022/07/19 02:29:40;;;;;;;8.50;6.30;;;;;;;;;;5056815;22;20037;-63
2022/07/19 02:32:06;;;;;;;7.38;5.60;;;;;;;;;;5028913;28;20134;-63
2022/07/19 02:34:32;;;;;;;7.28;5.70;;;;;;;;;;5034935;28;20048;-63
2022/07/19 02:36:58;;;;;;;8.27;5.93;;;;;;;;;;5031876;28;20029;-63
2022/07/19 02:39:24;;;;;;;7.72;6.00;;;;;;;;;;5025108;28;20034;-62
2022/07/19 02:41:50;;;;;;;9.10;5.97;;;;;;;;;;5013016;28;20030;-63
2022/07/19 02:44:16;;;;;;;7.63;6.07;;;;;;;;;;5012779;28;20034;-63
2022/07/19 02:46:43;;;;;;;9.30;6.18;;;;;;;;;;5014947;28;20519;-63
2022/07/19 02:49:09;;;;;;;7.70;6.22;;;;;;;;;;5012450;28;20037;-63
2022/07/19 02:51:35;;;;;;;10.60;6.65;;;;;;;;;;5011231;28;20030;-63
2022/07/19 02:54:01;;;;;;;9.32;5.97;;;;;;;;;;5008514;28;20033;-63
2022/07/19 02:56:27;;;;;;;9.38;6.03;;;;;;;;;;5015055;28;20044;-63
2022/07/19 02:58:53;;;;;;;7.93;5.85;;;;;;;;;;5012195;28;20038;-62
2022/07/19 03:01:19;;;;;;;8.63;5.78;;;;;;;;;;5014624;28;20415;-63
2022/07/19 03:03:46;;;;;;;9.10;6.15;;;;;;;;;;5011802;28;20038;-62
2022/07/19 03:06:13;;;;;;;7.63;5.32;;;;;;;;;;5013548;28;20582;-62
2022/07/19 03:08:39;;;;;;;7.10;5.43;;;;;;;;;;5011046;28;20046;-63
2022/07/19 03:11:05;;;;;;;8.75;6.20;;;;;;;;;;5014324;28;20100;-63
2022/07/19 03:13:31;;;;;;;10.98;5.55;;;;;;;;;;5013549;28;20038;-63
2022/07/19 03:15:57;;;;;;;8.20;6.35;;;;;;;;;;5014760;28;20044;-62
2022/07/19 03:18:23;;;;;;;8.23;5.80;;;;;;;;;;5012849;28;20052;-63
2022/07/19 03:20:49;;;;;;;10.90;6.47;;;;;;;;;;5011443;28;20026;-63
2022/07/19 03:23:15;;;;;;;9.23;6.60;;;;;;;;;;5013684;28;20475;-63
2022/07/19 03:25:41;;;;;;;11.52;6.63;;;;;;;;;;5013765;28;20072;-63
2022/07/19 03:28:07;;;;;;;12.68;6.47;;;;;;;;;;5013370;28;20038;-63
2022/07/19 03:30:33;;;;;;;11.45;7.18;;;;;;;;;;5013704;28;20574;-63
2022/07/19 03:32:59;;;;;;;8.18;5.78;;;;;;;;;;5012791;28;20037;-63
2022/07/19 03:35:25;;;;;;;10.55;6.05;;;;;;;;;;5011626;28;20046;-63
2022/07/19 03:37:51;;;;;;;7.30;5.40;;;;;;;;;;5012486;28;20119;-62
2022/07/19 03:40:17;;;;;;;7.78;5.57;;;;;;;;;;5012243;28;20042;-63
2022/07/19 03:42:43;;;;;;;8.73;5.85;;;;;;;;;;5012510;28;20042;-63
2022/07/19 03:45:09;;;;;;;8.88;6.50;;;;;;;;;;5011078;28;20026;-63
2022/07/19 03:47:35;;;;;;;10.27;6.43;;;;;;;;;;5011504;28;20100;-63
2022/07/19 03:50:01;;;;;;;8.95;6.82;;;;;;;;;;5012278;28;20030;-63
2022/07/19 03:52:27;;;;;;;8.80;6.82;;;;;;;;;;5003438;28;20562;-63
2022/07/19 03:54:53;;;;;;;9.35;6.38;;;;;;;;;;5013498;28;20418;-63
2022/07/19 03:57:19;;;;;;;10.70;6.97;;;;;;;;;;5013369;28;20037;-63
2022/07/19 03:59:45;;;;;;;11.75;6.70;;;;;;;;;;5012567;28;20510;-63
2022/07/19 04:02:11;;;;;;;10.00;6.53;;;;;;;;;;5011225;28;20061;-62
2022/07/19 04:04:37;;;;;;;13.93;6.97;;;;;;;;;;5010296;28;20069;-63
2022/07/19 04:07:03;;;;;;;10.85;6.82;;;;;;;;;;5011412;28;20463;-63
2022/07/19 04:09:29;;;;;;;8.48;6.07;;;;;;;;;;5013327;28;20084;-63
2022/07/19 04:11:55;;;;;;;10.50;6.63;;;;;;;;;;5012485;28;20065;-63
2022/07/19 04:14:21;;;;;;;9.32;6.47;;;;;;;;;;5011100;28;20309;-63
2022/07/19 04:16:47;;;;;;;6.68;5.60;;;;;;;;;;5013150;28;20042;-63
2022/07/19 04:19:13;;;;;;;9.57;6.00;;;;;;;;;;5010303;28;20049;-62
2022/07/19 04:21:39;;;;;;;9.15;6.03;;;;;;;;;;5004748;28;20385;-63
2022/07/19 04:24:05;;;;;;;10.35;5.82;;;;;;;;;;5012267;28;20045;-63
2022/07/19 04:26:31;;;;;;;9.63;6.38;;;;;;;;;;5003782;28;20084;-63
2022/07/19 04:28:57;;;;;;;8.55;5.93;;;;;;;;;;5007299;28;20038;-62
2022/07/19 04:31:23;;;;;;;8.45;5.85;;;;;;;;;;5012948;28;20173;-63
2022/07/19 04:33:49;;;;;;;9.20;6.30;;;;;;;;;;5010200;28;20184;-63
2022/07/19 04:36:15;;;;;;;10.40;6.53;;;;;;;;;;5008837;28;20041;-62
2022/07/19 04:38:41;;;;;;;9.52;6.03;;;;;;;;;;5011321;28;20412;-63
2022/07/19 04:41:07;;;;;;;7.03;5.40;;;;;;;;;;5011177;28;20034;-63
2022/07/19 04:43:33;;;;;;;12.50;6.97;;;;;;;;;;5009407;28;20038;-62
2022/07/19 04:45:59;;;;;;;11.98;6.07;;;;;;;;;;5011892;28;20057;-63
2022/07/19 04:48:26;;;;;;;11.75;6.97;;;;;;;;;;5010092;28;20049;-63
2022/07/19 04:50:52;;;;;;;11.98;6.63;;;;;;;;;;5012255;28;20488;-63
2022/07/19 04:53:18;;;;;;;10.60;7.28;;;;;;;;;;5012330;28;20447;-63
2022/07/19 04:55:44;;;;;;;13.20;7.22;;;;;;;;;;5012939;28;20044;-63
2022/07/19 04:58:10;;;;;;;8.82;5.80;;;;;;;;;;5009680;28;20492;-63
2022/07/19 05:00:36;;;;;;;11.25;6.32;;;;;;;;;;5009209;28;20057;-62
2022/07/19 05:03:02;;;;;;;9.77;6.80;;;;;;;;;;5009569;28;20042;-62
2022/07/19 05:05:28;;;;;;;11.35;7.00;;;;;;;;;;5011764;28;20065;-62
2022/07/19 05:07:54;;;;;;;10.40;6.88;;;;;;;;;;5011966;28;20066;-62
2022/07/19 05:10:20;;;;;;;8.88;7.07;;;;;;;;;;5012662;28;20041;-62
2022/07/19 05:12:46;;;;;;;13.65;8.10;;;;;;;;;;5011253;28;20473;-62
2022/07/19 05:15:12;;;;;;;15.13;8.27;;;;;;;;;;5012149;28;20125;-62
2022/07/19 05:17:38;;;;;;;11.45;7.82;;;;;;;;;;5009066;28;20117;-62
2022/07/19 05:20:06;;;;;;;12.68;7.90;;;;;;;;;;5007812;28;20530;-62
2022/07/19 05:22:32;;;;;;;14.70;8.23;;;;;;;;;;5002034;28;20044;-62
2022/07/19 05:24:58;;;;;;;17.52;9.00;;;;;;;;;;5004031;28;20037;-62
2022/07/19 05:27:24;;;;;;;13.60;9.20;;;;;;;;;;5009400;28;20046;-62
2022/07/19 05:29:50;;;;;;;13.93;8.68;;;;;;;;;;5011090;28;20034;-62
2022/07/19 05:32:16;;;;;;;12.60;9.63;;;;;;;;;;5007792;28;20045;-62
2022/07/19 05:34:42;;;;;;;12.43;9.02;;;;;;;;;;5007930;28;20042;-62
2022/07/19 05:37:08;;;;;;;14.50;8.93;;;;;;;;;;5008341;28;20046;-62
2022/07/19 05:39:34;;;;;;;13.65;8.70;;;;;;;;;;5008915;28;20037;-62
2022/07/19 05:42:00;;;;;;;12.63;8.13;;;;;;;;;;5011327;28;20045;-62
2022/07/19 05:44:26;;;;;;;12.93;8.90;;;;;;;;;;5009680;28;20407;-62
2022/07/19 05:46:52;;;;;;;16.27;8.63;;;;;;;;;;5006980;28;20092;-62
2022/07/19 05:49:19;;;;;;;14.60;9.05;;;;;;;;;;5004935;28;20534;-62
2022/07/19 05:51:45;;;;;;;12.38;8.88;;;;;;;;;;5006745;28;20142;-63
2022/07/19 05:54:11;;;;;;;14.25;8.35;;;;;;;;;;5006886;28;20134;-62
2022/07/19 05:56:37;;;;;;;13.25;8.02;;;;;;;;;;5007360;28;20152;-62
2022/07/19 05:59:03;;;;;;;11.73;7.90;;;;;;;;;;5009920;28;20572;-63
2022/07/19 06:01:30;;;;;;;12.52;9.10;;;;;;;;;;5009461;28;20947;-62
2022/07/19 06:03:57;;;;;;;13.07;8.40;;;;;;;;;;5006271;28;20045;-63
2022/07/19 06:06:23;;;;;;;12.82;8.15;;;;;;;;;;5007409;28;20121;-62
2022/07/19 06:08:50;;;;;;;107.80;14.63;;;;;;;;;;5003617;28;20511;-63
2022/07/19 06:11:16;;;;;;;13.80;8.25;;;;;;;;;;5004388;28;20080;-63
2022/07/19 06:13:43;;;;;;;12.55;7.88;;;;;;;;;;5010668;28;20042;-62
2022/07/19 06:16:09;;;;;;;16.88;7.30;;;;;;;;;;5006678;28;20057;-62
2022/07/19 06:18:35;;;;;;;12.27;7.50;;;;;;;;;;5009290;28;20046;-63
2022/07/19 06:21:05;;;;;;;11.88;7.15;;;;;;;;;;5010611;28;20038;-63
2022/07/19 06:23:31;;;;;;;11.47;7.27;;;;;;;;;;5010626;28;20038;-63
2022/07/19 06:25:57;;;;;;;12.43;7.47;;;;;;;;;;5010829;28;20037;-63
2022/07/19 06:28:23;;;;;;;13.30;6.95;;;;;;;;;;5011612;28;20049;-63
2022/07/19 06:30:49;;;;;;;13.15;7.32;;;;;;;;;;5008369;28;20399;-63
2022/07/19 06:33:15;;;;;;;12.68;6.82;;;;;;;;;;5011450;28;20439;-62
2022/07/19 06:35:41;;;;;;;10.82;7.15;;;;;;;;;;5011894;28;20042;-63
2022/07/19 06:38:07;;;;;;;9.35;6.53;;;;;;;;;;5009467;28;20103;-62
2022/07/19 06:40:33;;;;;;;11.55;7.35;;;;;;;;;;5009978;28;20038;-62
2022/07/19 06:42:59;;;;;;;11.00;6.85;;;;;;;;;;5005712;28;20616;-63
2022/07/19 06:45:25;;;;;;;12.43;6.88;;;;;;;;;;5009426;28;20049;-63
2022/07/19 06:47:52;;;;;;;10.45;6.82;;;;;;;;;;5011065;28;20101;-62
2022/07/19 06:50:18;;;;;;;12.80;6.53;;;;;;;;;;5011411;28;20053;-63
2022/07/19 06:52:44;;;;;;;10.13;6.45;;;;;;;;;;5010692;28;20045;-63
2022/07/19 06:55:10;;;;;;;11.95;6.18;;;;;;;;;;5008308;28;20053;-63
2022/07/19 06:57:36;;;;;;;11.50;6.18;;;;;;;;;;5002144;28;20076;-63
2022/07/19 07:00:03;;;;;;;12.77;6.18;;;;;;;;;;5009571;28;20664;-63
2022/07/19 07:02:29;;;;;;;8.50;5.72;;;;;;;;;;5010042;28;20048;-62
2022/07/19 07:04:55;;;;;;;8.90;5.60;;;;;;;;;;5008586;28;20403;-63
2022/07/19 07:07:21;;;;;;;6.70;5.65;;;;;;;;;;5010520;28;20046;-63
2022/07/19 07:09:47;;;;;;;8.77;5.35;;;;;;;;;;5009076;28;20156;-63
2022/07/19 07:12:13;;;;;;;7.57;5.43;;;;;;;;;;5005030;28;20042;-63
2022/07/19 07:14:39;;;;;;;8.50;5.35;;;;;;;;;;5007436;28;20042;-63
2022/07/19 07:17:05;;;;;;;9.32;5.32;;;;;;;;;;5004930;28;20074;-63
2022/07/19 07:19:31;;;;;;;8.82;5.10;;;;;;;;;;5013097;28;20461;-62
2022/07/19 07:22:00;;;;;;;10.15;5.50;;;;;;;;;;5013618;28;20044;-62
2022/07/19 07:24:26;;;;;;;6.55;4.50;;;;;;;;;;5011805;28;20057;-62
2022/07/19 07:26:52;;;;;;;7.57;4.70;;;;;;;;;;5011996;28;20538;-62
2022/07/19 07:29:18;;;;;;;8.85;4.90;;;;;;;;;;5006799;28;20095;-62
2022/07/19 07:31:44;;;;;;;7.78;4.40;;;;;;;;;;5007251;28;20084;-62
2022/07/19 07:34:10;;;;;;;11.23;4.57;;;;;;;;;;5008108;28;20030;-62
2022/07/19 07:36:36;;;;;;;6.47;4.25;;;;;;;;;;5009900;28;20072;-62
2022/07/19 07:39:02;;;;;;;8.65;4.50;;;;;;;;;;5008072;28;20343;-62
2022/07/19 07:41:28;;;;;;;8.82;4.97;;;;;;;;;;5008025;28;20583;-62
2022/07/19 07:43:54;;;;;;;6.97;4.40;;;;;;;;;;5012145;28;20041;-62
2022/07/19 07:46:21;;;;;;;7.45;4.68;;;;;;;;;;5009357;28;20030;-62
2022/07/19 07:48:47;;;;;;;6.68;3.88;;;;;;;;;;5013196;28;20045;-62
2022/07/19 07:51:13;;;;;;;7.88;3.60;;;;;;;;;;5013204;28;20037;-62
2022/07/19 07:53:39;;;;;;;6.47;4.00;;;;;;;;;;5009492;28;20400;-63
2022/07/19 07:56:05;;;;;;;8.48;3.80;;;;;;;;;;5010175;28;20419;-63
2022/07/19 07:58:31;;;;;;;7.05;3.67;;;;;;;;;;5009327;28;20049;-62
2022/07/19 08:00:57;;;;;;;6.53;3.97;;;;;;;;;;5010045;28;20132;-63
2022/07/19 08:03:23;;;;;;;7.85;4.03;;;;;;;;;;5008954;28;20045;-63
2022/07/19 08:05:49;;;;;;;8.93;4.05;;;;;;;;;;5009151;28;20038;-63
2022/07/19 08:08:15;;;;;;;11.43;4.13;;;;;;;;;;5007398;28;20034;-63
2022/07/19 08:10:41;;;;;;;6.18;3.38;;;;;;;;;;5010509;28;20044;-63
2022/07/19 08:13:07;;;;;;;7.28;3.72;;;;;;;;;;5009698;28;20046;-63
2022/07/19 08:15:34;;;;;;;4.70;3.40;;;;;;;;;;5008548;28;20575;-63
2022/07/19 08:18:00;;;;;;;6.25;3.60;;;;;;;;;;5012352;28;20038;-63
2022/07/19 08:20:26;;;;;;;8.80;3.40;;;;;;;;;;5007939;28;20407;-63
2022/07/19 08:22:52;;;;;;;8.18;3.28;;;;;;;;;;5012058;28;20080;-63
2022/07/19 08:25:18;;;;;;;4.32;3.10;;;;;;;;;;5011629;28;20042;-63
2022/07/19 08:27:44;;;;;;;5.88;3.10;;;;;;;;;;5009692;28;20037;-63
2022/07/19 08:30:11;;;;;;;6.55;3.08;;;;;;;;;;5032583;22;20037;-63
2022/07/19 08:32:38;;;;;;;5.53;2.70;;;;;;;;;;5027274;28;20049;-64
2022/07/19 08:35:05;;;;;;;6.53;2.97;;;;;;;;;;5031180;28;20073;-63
2022/07/19 08:37:31;;;;;;;8.32;2.92;;;;;;;;;;5022561;28;20423;-63
2022/07/19 08:39:57;;;;;;;4.88;2.80;;;;;;;;;;5030160;28;20041;-63
2022/07/19 08:42:24;;;;;;;5.03;2.90;;;;;;;;;;5029385;28;20452;-64
2022/07/19 08:44:54;;;;;;;5.60;2.95;;;;;;;;;;5027506;28;20045;-63
2022/07/19 08:47:20;;;;;;;7.68;2.97;;;;;;;;;;5030447;28;20068;-64
2022/07/19 08:49:47;;;;;;;7.95;2.70;;;;;;;;;;5025521;28;20087;-64
2022/07/19 08:52:13;;;;;;;5.50;3.25;;;;;;;;;;5016118;28;20049;-64
2022/07/19 08:54:39;;;;;;;5.75;3.05;;;;;;;;;;5027648;28;20108;-64
2022/07/19 08:59:51;;;;;;;5.13;3.20;;;;;;;;;;5027304;28;20038;-64
2022/07/19 09:02:17;;;;;;;4.85;3.03;;;;;;;;;;5027911;28;20458;-64
2022/07/19 09:04:43;;;;;;;5.97;2.85;;;;;;;;;;5025209;28;20033;-63
2022/07/19 09:07:09;;;;;;;9.02;2.78;;;;;;;;;;5024211;28;20037;-64
2022/07/19 09:09:36;;;;;;;4.10;2.47;;;;;;;;;;5027776;28;20484;-64
2022/07/19 09:12:04;;;;;;;3.03;2.33;;;;;;;;;;5026979;28;20038;-64
2022/07/19 09:14:31;;;;;;;4.40;2.42;;;;;;;;;;5030259;28;20045;-64
2022/07/19 09:16:57;;;;;;;4.82;2.42;;;;;;;;;;5032319;28;20123;-64
2022/07/19 09:19:27;;;;;;;7.95;2.70;;;;;;;;;;5025760;28;20419;-64
2022/07/19 09:21:54;;;;;;;5.60;2.55;;;;;;;;;;5030260;28;20372;-64
2022/07/19 09:24:21;;;;;;;4.00;2.50;;;;;;;;;;5028795;28;20092;-64
2022/07/19 09:26:56;;;;;;;5.50;2.35;;;;;;;;;;5032059;28;20478;-63
2022/07/19 09:29:22;;;;;;;3.90;2.47;;;;;;;;;;5025845;28;20073;-64
2022/07/19 09:32:03;;;;;;;4.60;2.65;;;;;;;;;;5027781;28;20045;-64
2022/07/19 09:34:49;;;;;;;7.80;2.85;;;;;;;;;;5032014;28;20045;-64
2022/07/19 09:37:26;;;;;;;7.13;2.40;;;;;;;;;;5030539;28;20094;-64
2022/07/19 09:39:53;;;;;;;5.30;2.40;;;;;;;;;;5030742;28;20087;-64
2022/07/19 09:42:39;;;;;;;6.32;2.80;;;;;;;;;;5030870;28;20037;-64
2022/07/19 09:45:09;;;;;;;4.25;2.00;;;;;;;;;;5029295;28;20120;-64
2022/07/19 09:47:39;;;;;;;6.45;2.30;;;;;;;;;;5026788;28;20112;-64
2022/07/19 09:50:07;;;;;;;6.03;2.40;;;;;;;;;;5029616;28;20045;-63
2022/07/19 09:52:36;;;;;;;3.92;2.53;;;;;;;;;;5031653;28;20045;-64
2022/07/19 09:55:03;;;;;;;6.40;2.30;;;;;;;;;;5028407;28;20041;-63
2022/07/19 09:57:32;;;;;;;6.07;2.90;;;;;;;;;;5028149;28;20370;-63
2022/07/19 09:59:59;;;;;;;;;;;;;;;;;;5019771;28;20506;-64
2022/07/19 10:02:26;;;;;;;5.72;2.60;;;;;;;;;;5025489;28;19952;-64
2022/07/19 10:04:52;;;;;;;5.65;2.38;;;;;;;;;;5026900;28;20491;-64
2022/07/19 10:07:18;;;;;;;5.32;2.40;;;;;;;;;;5023528;28;20526;-64
2022/07/19 10:09:45;;;;;;;4.70;2.75;;;;;;;;;;5027887;28;20034;-64
2022/07/19 10:12:12;;;;;;;5.55;2.83;;;;;;;;;;5023372;28;20049;-64
2022/07/19 10:14:39;;;;;;;4.32;2.13;;;;;;;;;;5024882;28;20053;-64
2022/07/19 10:17:17;;;;;;;7.47;2.42;;;;;;;;;;5027204;28;20037;-64
2022/07/19 10:19:44;;;;;;;4.03;1.98;;;;;;;;;;5029274;28;20041;-64
2022/07/19 10:22:11;;;;;;;3.53;2.05;;;;;;;;;;5022364;28;20030;-64
2022/07/19 10:24:51;;;;;;;3.38;1.92;;;;;;;;;;5030374;28;20510;-64
2022/07/19 10:27:36;;;;;;;5.10;2.00;;;;;;;;;;5026278;28;20395;-64
2022/07/19 10:30:08;;;;;;;5.63;2.10;;;;;;;;;;5029500;28;20299;-65
2022/07/19 10:32:34;;;;;;;5.43;2.08;;;;;;;;;;5031647;28;20365;-64
2022/07/19 10:35:19;;;;;;;6.28;2.47;;;;;;;;;;5027255;28;20045;-64
2022/07/19 10:37:49;;;;;;;6.90;2.55;;;;;;;;;;5021431;28;20368;-64
2022/07/19 10:40:34;;;;;;;5.20;2.20;;;;;;;;;;5028072;28;20037;-63
2022/07/19 10:43:10;;;;;;;5.90;2.05;;;;;;;;;;5030359;28;20095;-65
2022/07/19 10:45:36;;;;;;;3.50;2.15;;;;;;;;;;5023092;28;20029;-65
2022/07/19 10:48:07;;;;;;;4.13;2.40;;;;;;;;;;5029249;28;20380;-64
2022/07/19 10:50:43;;;;;;;4.90;2.10;;;;;;;;;;5031739;28;20038;-64
2022/07/19 10:53:09;;;;;;;5.55;2.40;;;;;;;;;;5032585;28;20041;-64
2022/07/19 10:55:36;;;;;;;6.40;2.40;;;;;;;;;;5030346;28;20509;-65
2022/07/19 10:58:12;;;;;;;5.38;2.20;;;;;;;;;;5033004;28;20048;-64
2022/07/19 11:00:40;;;;;;;3.95;2.10;;;;;;;;;;5032876;28;20029;-64
2022/07/19 11:03:22;;;;;;;5.35;2.45;;;;;;;;;;5034050;28;20384;-64
2022/07/19 11:05:50;;;;;;;6.00;2.10;;;;;;;;;;5026415;28;20041;-63
2022/07/19 11:08:16;;;;;;;4.75;2.22;;;;;;;;;;5033931;28;20045;-65
2022/07/19 11:10:42;;;;;;;2.88;1.85;;;;;;;;;;5031121;28;20034;-65
2022/07/19 11:13:08;;;;;;;7.28;1.90;;;;;;;;;;5033745;28;20056;-65
2022/07/19 11:15:34;;;;;;;4.18;2.00;;;;;;;;;;5033942;28;20051;-65
2022/07/19 11:18:05;;;;;;;3.50;2.17;;;;;;;;;;5031602;28;20041;-65
2022/07/19 11:20:32;;;;;;;4.32;2.17;;;;;;;;;;5033408;28;20112;-64
2022/07/19 11:22:58;;;;;;;5.25;2.20;;;;;;;;;;5033767;28;20041;-65
2022/07/19 11:25:31;;;;;;;4.03;1.98;;;;;;;;;;5029124;28;20045;-65
2022/07/19 11:27:57;;;;;;;5.10;2.05;;;;;;;;;;5023430;28;20045;-65
2022/07/19 11:30:24;;;;;;;2.88;1.80;;;;;;;;;;5028898;28;20046;-65
2022/07/19 11:32:54;;;;;;;4.55;2.03;;;;;;;;;;5020233;28;20091;-65
2022/07/19 11:35:20;;;;;;;;;;;;;;;;;;5028126;28;20049;-65
2022/07/19 11:37:47;;;;;;;7.50;2.08;;;;;;;;;;5027257;28;19936;-65
2022/07/19 11:40:13;;;;;;;4.78;2.13;;;;;;;;;;5031429;28;20045;-66
2022/07/19 11:42:44;;;;;;;5.05;1.80;;;;;;;;;;5031204;28;20041;-65
2022/07/19 11:45:11;;;;;;;3.30;1.75;;;;;;;;;;5033675;28;20065;-65
2022/07/19 11:47:37;;;;;;;4.28;1.60;;;;;;;;;;5030208;28;20045;-65
2022/07/19 11:50:07;;;;;;;3.78;1.90;;;;;;;;;;5027855;28;20065;-65
2022/07/19 11:52:42;;;;;;;3.20;1.63;;;;;;;;;;5029194;28;20496;-65
2022/07/19 11:55:09;;;;;;;3.60;1.60;;;;;;;;;;5032312;28;20068;-66
2022/07/19 11:57:35;;;;;;;4.38;1.75;;;;;;;;;;5032406;28;20387;-65
2022/07/19 12:00:01;;;;;;;4.13;1.60;;;;;;;;;;5028949;28;20036;-65
2022/07/19 12:02:27;;;;;;;4.53;1.50;;;;;;;;;;5026681;28;20388;-65
2022/07/19 12:04:53;;;;;;;3.10;1.90;;;;;;;;;;5033727;28;20037;-65
2022/07/19 12:07:19;;;;;;;4.38;1.70;;;;;;;;;;5026272;28;20075;-64
2022/07/19 12:09:45;;;;;;;2.75;1.52;;;;;;;;;;5022216;28;20037;-66
2022/07/19 12:12:12;;;;;;;3.22;1.42;;;;;;;;;;5028748;28;20686;-65
2022/07/19 12:14:40;;;;;;;4.32;1.60;;;;;;;;;;5022072;28;20057;-65
2022/07/19 12:17:19;;;;;;;4.05;1.70;;;;;;;;;;5025822;28;20511;-65
2022/07/19 12:19:53;;;;;;;4.10;1.65;;;;;;;;;;5024789;28;20033;-65
2022/07/19 12:22:28;;;;;;;3.42;1.42;;;;;;;;;;5028468;28;20095;-65
2022/07/19 12:24:54;;;;;;;5.13;1.60;;;;;;;;;;5020794;28;20518;-65
2022/07/19 12:27:20;;;;;;;4.70;1.52;;;;;;;;;;5028194;28;20495;-65
2022/07/19 12:29:50;;;;;;;2.45;1.50;;;;;;;;;;5019734;28;20041;-66
2022/07/19 12:32:26;;;;;;;8.40;2.72;;;;;;;;;;5019221;28;20045;-66
2022/07/19 12:34:57;;;;;;;3.38;1.38;;;;;;;;;;5029116;28;20049;-66
2022/07/19 12:37:30;;;;;;;4.15;1.58;;;;;;;;;;5028948;28;20065;-66
2022/07/19 12:40:07;;;;;;;3.97;1.50;;;;;;;;;;5025084;28;20064;-65
2022/07/19 12:43:05;;;;;;;2.22;1.45;;;;;;;;;;5031837;28;20072;-65
2022/07/19 12:45:36;;;;;;;3.17;1.45;;;;;;;;;;5026507;28;20045;-66
2022/07/19 12:48:03;;;;;;;2.90;1.40;;;;;;;;;;5027471;28;20041;-65
2022/07/19 12:50:30;;;;;;;5.13;1.60;;;;;;;;;;5028729;28;20102;-66
2022/07/19 12:52:58;;;;;;;3.92;1.60;;;;;;;;;;5031772;28;20037;-65
2022/07/19 12:55:24;;;;;;;4.43;2.15;;;;;;;;;;5024048;28;20132;-65
2022/07/19 12:57:51;;;;;;;3.78;1.80;;;;;;;;;;5031197;28;20301;-65
2022/07/19 13:00:18;;;;;;;3.85;1.50;;;;;;;;;;5024485;28;20041;-65
2022/07/19 13:02:44;;;;;;;2.92;1.50;;;;;;;;;;5021293;28;20041;-65
2022/07/19 13:05:10;;;;;;;3.72;1.55;;;;;;;;;;5029756;28;20455;-66
2022/07/19 13:07:36;;;;;;;1.52;1.42;;;;;;;;;;5026174;28;20037;-66
2022/07/19 13:10:03;;;;;;;2.45;1.60;;;;;;;;;;5026046;28;20449;-65
2022/07/19 13:12:29;;;;;;;3.92;1.45;;;;;;;;;;5029642;28;20037;-65
2022/07/19 13:14:55;;;;;;;7.10;1.50;;;;;;;;;;5030227;28;20110;-65
2022/07/19 13:17:21;;;;;;;4.80;1.50;;;;;;;;;;5030229;28;20056;-65
2022/07/19 13:19:47;;;;;;;4.28;1.50;;;;;;;;;;5026611;28;20038;-65
2022/07/19 13:22:13;;;;;;;4.05;1.40;;;;;;;;;;5028263;28;20038;-66
2022/07/19 13:24:39;;;;;;;4.43;1.30;;;;;;;;;;5029527;28;20037;-66
2022/07/19 13:27:05;;;;;;;4.85;1.52;;;;;;;;;;5026680;28;20038;-65
2022/07/19 13:29:31;;;;;;;6.18;1.35;;;;;;;;;;5027276;28;20116;-65
2022/07/19 13:32:00;;;;;;;5.10;1.58;;;;;;;;;;5030908;28;20129;-66
2022/07/19 13:34:26;;;;;;;2.50;1.30;;;;;;;;;;5031555;28;20041;-65
2022/07/19 13:36:52;;;;;;;3.95;1.45;;;;;;;;;;5022504;28;20096;-66
2022/07/19 13:39:19;;;;;;;3.13;1.40;;;;;;;;;;5021193;28;20074;-66
2022/07/19 13:41:45;;;;;;;3.60;1.55;;;;;;;;;;5026799;28;20509;-66
2022/07/19 13:44:11;;;;;;;3.58;1.60;;;;;;;;;;5027759;28;20030;-66
2022/07/19 13:46:37;;;;;;;3.15;1.48;;;;;;;;;;5022976;28;20036;-66
2022/07/19 13:49:03;;;;;;;6.00;1.75;;;;;;;;;;5030211;28;20068;-66
2022/07/19 13:51:29;;;;;;;3.83;1.48;;;;;;;;;;5029811;28;20041;-66
2022/07/19 13:53:55;;;;;;;2.17;1.25;;;;;;;;;;5031920;28;20045;-66
2022/07/19 13:56:22;;;;;;;4.55;1.63;;;;;;;;;;5027133;28;20092;-66
2022/07/19 13:58:49;;;;;;;4.80;1.63;;;;;;;;;;5024146;28;20075;-66
2022/07/19 14:01:15;;;;;;;4.10;1.63;;;;;;;;;;5022484;28;20124;-65
2022/07/19 14:03:41;;;;;;;3.80;1.38;;;;;;;;;;5024985;28;20083;-64
2022/07/19 14:06:07;;;;;;;3.90;1.60;;;;;;;;;;5028869;28;20038;-63
2022/07/19 14:08:33;;;;;;;7.95;1.77;;;;;;;;;;5023656;28;20077;-64
2022/07/19 14:11:00;;;;;;;4.45;1.60;;;;;;;;;;5026421;28;20443;-64
2022/07/19 14:13:26;;;;;;;2.40;1.60;;;;;;;;;;5027094;28;20041;-65
2022/07/19 14:15:52;;;;;;;3.80;1.80;;;;;;;;;;5031524;28;20029;-65
2022/07/19 14:18:19;;;;;;;4.15;1.63;;;;;;;;;;5029333;28;20483;-65
2022/07/19 14:20:45;;;;;;;5.90;1.73;;;;;;;;;;5026773;28;20087;-65
2022/07/19 14:23:11;;;;;;;2.95;1.55;;;;;;;;;;5028824;28;20041;-64
2022/07/19 14:25:38;;;;;;;4.18;1.58;;;;;;;;;;5027048;28;20048;-65
2022/07/19 14:28:04;;;;;;;4.57;1.60;;;;;;;;;;5032058;28;20056;-66
2022/07/19 14:30:30;;;;;;;2.92;1.60;;;;;;;;;;5026496;22;20058;-65
2022/07/19 14:32:56;;;;;;;3.35;1.67;;;;;;;;;;4994552;28;20543;-66
2022/07/19 14:35:22;;;;;;;3.20;1.65;;;;;;;;;;4992705;28;20050;-65
2022/07/19 14:37:48;;;;;;;4.05;1.70;;;;;;;;;;4992010;28;20045;-64
2022/07/19 14:40:15;;;;;;;4.68;1.60;;;;;;;;;;4992417;28;20038;-65
2022/07/19 14:42:41;;;;;;;3.38;1.83;;;;;;;;;;4989221;28;20035;-65